Terminal Aerodrome Forecast
Issued by NWS Wilmington, OH

Current Version | Previous Version | Graphics & Text | Print | Product List | Glossary On
Versions: 1 2 3 4 5 6 7 8 9 10 11 12 13 14 15
533
FTUS41 KILN 260222 AAA
TAFDAY
TAF AMD
KDAY 260222Z 2602/2624 28004KT P6SM FEW080
     FM261400 27012G18KT P6SM SCT060
     FM262100 27012G18KT P6SM VCSH BKN060=

USA.gov is the U.S. government's official web portal to all federal, state and local government web resources and services.